createdAt,value
2022-08-19T00:00:01.974Z,95097.00
2022-08-19T00:00:12.232Z,95098.00
2022-08-19T00:00:22.044Z,95093.00
2022-08-19T00:00:32.140Z,95093.00
2022-08-19T00:00:42.256Z,95093.00
2022-08-19T00:00:52.217Z,95095.00
2022-08-19T00:01:02.143Z,95100.00
2022-08-19T00:01:12.137Z,95096.00
2022-08-19T00:01:28.654Z,95099.00
2022-08-19T00:01:32.171Z,95096.00
2022-08-19T00:01:42.239Z,95098.00
2022-08-19T00:01:52.999Z,95099.00
2022-08-19T00:02:02.121Z,95096.00
2022-08-19T00:02:12.093Z,95101.00
2022-08-19T00:02:21.995Z,95103.00
2022-08-19T00:02:32.163Z,95101.00
2022-08-19T00:02:47.021Z,95105.00
2022-08-19T00:02:52.296Z,95105.00
2022-08-19T00:03:01.997Z,95102.00
2022-08-19T00:03:12.136Z,95103.00
2022-08-19T00:03:22.027Z,95102.00
2022-08-19T00:03:31.979Z,95108.00
2022-08-19T00:03:42.015Z,95108.00
2022-08-19T00:03:52.144Z,95106.00
2022-08-19T00:04:02.057Z,95106.00
2022-08-19T00:04:12.229Z,95112.00
2022-08-19T00:04:22.639Z,95111.00
2022-08-19T00:04:32.186Z,95111.00
2022-08-19T00:04:42.023Z,95111.00
2022-08-19T00:04:52.186Z,95111.00
2022-08-19T00:05:02.086Z,95111.00
2022-08-19T00:05:11.992Z,95111.00
2022-08-19T00:05:22.021Z,95116.00
2022-08-19T00:05:32.223Z,95114.00
2022-08-19T00:05:41.996Z,95114.00
2022-08-19T00:05:52.076Z,95114.00
2022-08-19T00:06:02.227Z,95115.00
2022-08-19T00:06:12.115Z,95118.00
2022-08-19T00:06:22.118Z,95115.00
2022-08-19T00:06:32.115Z,95115.00
2022-08-19T00:06:42.110Z,95116.00
2022-08-19T00:06:52.004Z,95119.00
2022-08-19T00:07:02.206Z,95116.00
2022-08-19T00:07:12.017Z,95115.00
2022-08-19T00:07:22.252Z,95118.00
2022-08-19T00:07:32.221Z,95118.00
2022-08-19T00:07:42.285Z,95118.00
2022-08-19T00:07:52.223Z,95115.00
2022-08-19T00:08:02.209Z,95118.00
2022-08-19T00:08:12.232Z,95119.00
2022-08-19T00:08:22.070Z,95117.00
2022-08-19T00:08:32.150Z,95119.00
2022-08-19T00:08:42.943Z,95116.00
2022-08-19T00:08:52.014Z,95118.00
2022-08-19T00:09:02.196Z,95116.00
2022-08-19T00:09:12.164Z,95118.00
2022-08-19T00:09:22.145Z,95117.00
2022-08-19T00:09:31.992Z,95116.00
2022-08-19T00:09:42.161Z,95117.00
2022-08-19T00:09:52.041Z,95114.00
2022-08-19T00:10:02.114Z,95113.00
2022-08-19T00:10:12.097Z,95114.00
2022-08-19T00:10:21.990Z,95116.00
2022-08-19T00:10:32.278Z,95111.00
2022-08-19T00:10:42.090Z,95111.00
2022-08-19T00:10:52.148Z,95109.00
2022-08-19T00:11:02.232Z,95107.00
2022-08-19T00:11:12.072Z,95110.00
2022-08-19T00:11:25.945Z,95110.00
2022-08-19T00:11:31.982Z,95109.00
2022-08-19T00:11:42.065Z,95106.00
2022-08-19T00:11:52.021Z,95106.00
2022-08-19T00:12:02.142Z,95108.00
2022-08-19T00:12:12.041Z,95107.00
2022-08-19T00:12:22.150Z,95107.00
2022-08-19T00:12:32.032Z,95103.00
2022-08-19T00:12:43.926Z,95103.00
2022-08-19T00:12:52.432Z,95106.00
2022-08-19T00:13:02.098Z,95100.00
2022-08-19T00:13:12.282Z,95101.00
2022-08-19T00:13:22.062Z,95101.00
2022-08-19T00:13:32.083Z,95102.00
2022-08-19T00:13:42.210Z,95098.00
2022-08-19T00:13:52.044Z,95099.00
2022-08-19T00:14:02.124Z,95101.00
2022-08-19T00:14:11.982Z,95099.00
2022-08-19T00:14:22.156Z,95098.00
2022-08-19T00:14:32.202Z,95100.00
2022-08-19T00:14:42.249Z,95099.00
2022-08-19T00:14:52.135Z,95097.00
2022-08-19T00:15:02.109Z,95095.00
2022-08-19T00:15:12.266Z,95093.00
2022-08-19T00:15:22.110Z,95095.00
2022-08-19T00:15:32.193Z,95096.00
2022-08-19T00:15:42.206Z,95095.00
2022-08-19T00:15:52.110Z,95098.00
2022-08-19T00:16:02.041Z,95092.00
2022-08-19T00:16:12.271Z,95097.00
2022-08-19T00:16:26.158Z,95094.00
2022-08-19T00:16:32.014Z,95095.00
2022-08-19T00:16:42.182Z,95096.00
2022-08-19T00:16:52.187Z,95097.00
2022-08-19T00:17:02.283Z,95098.00
2022-08-19T00:17:12.194Z,95097.00
2022-08-19T00:17:22.180Z,95094.00
2022-08-19T00:17:32.112Z,95093.00
2022-08-19T00:17:42.155Z,95094.00
2022-08-19T00:17:52.224Z,95096.00
2022-08-19T00:18:02.187Z,95091.00
2022-08-19T00:18:12.097Z,95093.00
2022-08-19T00:18:22.124Z,95094.00
2022-08-19T00:18:32.164Z,95092.00
2022-08-19T00:18:41.988Z,95096.00
2022-08-19T00:18:52.078Z,95093.00
2022-08-19T00:19:02.090Z,95094.00
2022-08-19T00:19:12.643Z,95090.00
2022-08-19T00:19:22.190Z,95093.00
2022-08-19T00:19:32.046Z,95092.00
2022-08-19T00:19:42.056Z,95092.00
2022-08-19T00:19:52.113Z,95093.00
2022-08-19T00:20:02.013Z,95089.00
2022-08-19T00:20:12.307Z,95087.00
2022-08-19T00:20:22.117Z,95089.00
2022-08-19T00:20:32.097Z,95087.00
2022-08-19T00:20:42.118Z,95087.00
2022-08-19T00:20:52.189Z,95087.00
2022-08-19T00:21:02.174Z,95089.00
2022-08-19T00:21:12.274Z,95083.00
2022-08-19T00:21:22.047Z,95084.00
2022-08-19T00:21:32.266Z,95090.00
2022-08-19T00:21:42.014Z,95084.00
2022-08-19T00:21:52.095Z,95081.00
2022-08-19T00:22:02.271Z,95082.00
2022-08-19T00:22:12.221Z,95080.00
2022-08-19T00:22:22.155Z,95079.00
2022-08-19T00:22:32.058Z,95078.00
2022-08-19T00:22:42.037Z,95081.00
2022-08-19T00:22:52.317Z,95079.00
2022-08-19T00:23:02.224Z,95082.00
2022-08-19T00:23:12.014Z,95081.00
2022-08-19T00:23:22.161Z,95079.00
2022-08-19T00:23:32.112Z,95082.00
2022-08-19T00:23:42.127Z,95080.00
2022-08-19T00:23:52.023Z,95083.00
2022-08-19T00:24:02.177Z,95084.00
2022-08-19T00:24:12.060Z,95077.00
2022-08-19T00:24:22.147Z,95081.00
2022-08-19T00:24:32.210Z,95081.00
2022-08-19T00:24:42.159Z,95079.00
2022-08-19T00:24:52.194Z,95081.00
2022-08-19T00:25:02.390Z,95077.00
2022-08-19T00:25:12.034Z,95078.00
2022-08-19T00:25:29.924Z,95079.00
2022-08-19T00:25:32.080Z,95079.00
2022-08-19T00:25:42.210Z,95077.00
2022-08-19T00:25:52.236Z,95075.00
2022-08-19T00:26:01.996Z,95075.00
2022-08-19T00:26:11.994Z,95077.00
2022-08-19T00:26:22.251Z,95075.00
2022-08-19T00:26:32.124Z,95073.00
2022-08-19T00:26:42.071Z,95076.00
2022-08-19T00:26:52.051Z,95075.00
2022-08-19T00:27:04.963Z,95074.00
2022-08-19T00:27:25.669Z,95073.00
2022-08-19T00:27:25.753Z,95073.00
2022-08-19T00:27:32.038Z,95070.00
2022-08-19T00:27:42.008Z,95070.00
2022-08-19T00:27:52.274Z,95070.00
2022-08-19T00:28:02.307Z,95069.00
2022-08-19T00:28:12.022Z,95070.00
2022-08-19T00:28:22.180Z,95070.00
2022-08-19T00:28:32.004Z,95070.00
2022-08-19T00:28:42.139Z,95070.00
2022-08-19T00:28:52.020Z,95068.00
2022-08-19T00:29:01.981Z,95072.00
2022-08-19T00:29:12.212Z,95067.00
2022-08-19T00:29:22.222Z,95066.00
2022-08-19T00:29:32.062Z,95061.00
2022-08-19T00:29:42.270Z,95065.00
2022-08-19T00:29:52.162Z,95063.00
2022-08-19T00:30:01.990Z,95064.00
2022-08-19T00:30:12.242Z,95064.00
2022-08-19T00:30:22.251Z,95058.00
2022-08-19T00:30:32.153Z,95059.00
2022-08-19T00:30:42.078Z,95058.00
2022-08-19T00:30:52.176Z,95059.00
2022-08-19T00:31:02.180Z,95059.00
2022-08-19T00:31:12.281Z,95058.00
2022-08-19T00:31:22.015Z,95060.00
2022-08-19T00:31:32.103Z,95061.00
2022-08-19T00:31:42.199Z,95059.00
2022-08-19T00:31:52.177Z,95057.00
2022-08-19T00:32:02.147Z,95054.00
2022-08-19T00:32:11.987Z,95055.00
2022-08-19T00:32:22.013Z,95057.00
2022-08-19T00:32:32.019Z,95052.00
2022-08-19T00:32:42.107Z,95053.00
2022-08-19T00:32:52.383Z,95055.00
2022-08-19T00:33:02.108Z,95050.00
2022-08-19T00:33:12.100Z,95053.00
2022-08-19T00:33:22.217Z,95054.00
2022-08-19T00:33:32.201Z,95052.00
2022-08-19T00:33:42.350Z,95056.00
2022-08-19T00:33:52.200Z,95056.00
2022-08-19T00:34:02.155Z,95056.00
2022-08-19T00:34:12.097Z,95053.00
2022-08-19T00:34:22.088Z,95055.00
2022-08-19T00:34:32.023Z,95056.00
2022-08-19T00:34:42.116Z,95053.00
2022-08-19T00:34:52.172Z,95056.00
2022-08-19T00:35:02.173Z,95054.00
2022-08-19T00:35:12.326Z,95054.00
2022-08-19T00:35:22.163Z,95052.00
2022-08-19T00:35:32.140Z,95055.00
2022-08-19T00:35:42.225Z,95055.00
2022-08-19T00:35:56.243Z,95055.00
2022-08-19T00:36:02.156Z,95055.00
2022-08-19T00:36:11.964Z,95054.00
2022-08-19T00:36:22.081Z,95056.00
2022-08-19T00:36:31.998Z,95057.00
2022-08-19T00:36:42.118Z,95055.00
2022-08-19T00:36:52.209Z,95057.00
2022-08-19T00:37:02.139Z,95053.00
2022-08-19T00:37:12.212Z,95057.00
2022-08-19T00:37:22.105Z,95054.00
2022-08-19T00:37:32.270Z,95058.00
2022-08-19T00:37:42.150Z,95057.00
2022-08-19T00:37:52.112Z,95056.00
2022-08-19T00:38:01.987Z,95058.00
2022-08-19T00:38:12.054Z,95061.00
2022-08-19T00:38:30.698Z,95058.00
2022-08-19T00:38:37.165Z,95061.00
2022-08-19T00:38:42.218Z,95060.00
2022-08-19T00:38:52.118Z,95061.00
2022-08-19T00:39:02.242Z,95061.00
2022-08-19T00:39:12.084Z,95060.00
2022-08-19T00:39:22.268Z,95063.00
2022-08-19T00:39:32.174Z,95063.00
2022-08-19T00:39:42.275Z,95064.00
2022-08-19T00:39:52.329Z,95063.00
2022-08-19T00:40:02.283Z,95061.00
2022-08-19T00:40:12.007Z,95063.00
2022-08-19T00:40:22.049Z,95066.00
2022-08-19T00:40:31.973Z,95065.00
2022-08-19T00:40:42.137Z,95065.00
2022-08-19T00:40:52.094Z,95063.00
2022-08-19T00:41:02.210Z,95066.00
2022-08-19T00:41:12.219Z,95067.00
2022-08-19T00:41:22.204Z,95065.00
2022-08-19T00:41:32.126Z,95068.00
2022-08-19T00:41:42.060Z,95066.00
2022-08-19T00:41:52.036Z,95064.00
2022-08-19T00:42:02.031Z,95066.00
2022-08-19T00:42:12.198Z,95066.00
2022-08-19T00:42:22.177Z,95066.00
2022-08-19T00:42:32.058Z,95066.00
2022-08-19T00:42:42.125Z,95066.00
2022-08-19T00:42:52.325Z,95067.00
2022-08-19T00:43:02.057Z,95066.00
2022-08-19T00:43:12.054Z,95066.00
2022-08-19T00:43:22.090Z,95067.00
2022-08-19T00:43:32.240Z,95067.00
2022-08-19T00:43:42.119Z,95063.00
2022-08-19T00:43:51.989Z,95063.00
2022-08-19T00:44:02.180Z,95066.00
2022-08-19T00:44:11.971Z,95064.00
2022-08-19T00:44:22.736Z,95065.00
2022-08-19T00:44:32.201Z,95066.00
2022-08-19T00:44:42.119Z,95064.00
2022-08-19T00:44:52.130Z,95064.00
2022-08-19T00:45:02.124Z,95064.00
2022-08-19T00:45:12.244Z,95066.00
2022-08-19T00:45:22.157Z,95064.00
2022-08-19T00:45:32.189Z,95061.00
2022-08-19T00:45:42.323Z,95062.00
2022-08-19T00:45:52.098Z,95062.00
2022-08-19T00:46:01.996Z,95064.00
2022-08-19T00:46:12.079Z,95062.00
2022-08-19T00:46:22.257Z,95061.00
2022-08-19T00:46:32.312Z,95062.00
2022-08-19T00:46:42.335Z,95062.00
2022-08-19T00:46:58.298Z,95059.00
2022-08-19T00:47:02.121Z,95059.00
2022-08-19T00:47:13.456Z,95060.00
2022-08-19T00:47:22.149Z,95061.00
2022-08-19T00:47:32.145Z,95061.00
2022-08-19T00:47:42.181Z,95061.00
2022-08-19T00:47:52.171Z,95058.00
2022-08-19T00:48:01.974Z,95055.00
2022-08-19T00:48:15.083Z,95058.00
2022-08-19T00:48:22.227Z,95056.00
2022-08-19T00:48:32.108Z,95055.00
2022-08-19T00:48:42.101Z,95061.00
2022-08-19T00:48:52.161Z,95057.00
2022-08-19T00:49:02.213Z,95056.00
2022-08-19T00:49:12.131Z,95053.00
2022-08-19T00:49:22.094Z,95054.00
2022-08-19T00:49:32.065Z,95051.00
2022-08-19T00:49:42.173Z,95057.00
2022-08-19T00:49:52.358Z,95053.00
2022-08-19T00:50:02.082Z,95055.00
2022-08-19T00:50:12.084Z,95059.00
2022-08-19T00:50:22.389Z,95057.00
2022-08-19T00:50:32.072Z,95058.00
2022-08-19T00:50:51.839Z,95055.00
2022-08-19T00:50:52.502Z,95053.00
2022-08-19T00:51:02.339Z,95056.00
2022-08-19T00:51:12.041Z,95058.00
2022-08-19T00:51:22.161Z,95057.00
2022-08-19T00:51:32.072Z,95056.00
2022-08-19T00:51:42.036Z,95055.00
2022-08-19T00:51:52.168Z,95056.00
2022-08-19T00:52:02.016Z,95056.00
2022-08-19T00:52:12.194Z,95053.00
2022-08-19T00:52:22.072Z,95055.00
2022-08-19T00:52:32.200Z,95052.00
2022-08-19T00:52:42.290Z,95056.00
2022-08-19T00:52:52.363Z,95054.00
2022-08-19T00:53:02.070Z,95051.00
2022-08-19T00:53:11.978Z,95051.00
2022-08-19T00:53:22.250Z,95050.00
2022-08-19T00:53:32.066Z,95053.00
2022-08-19T00:53:41.971Z,95048.00
2022-08-19T00:53:52.071Z,95052.00
2022-08-19T00:54:02.059Z,95049.00
2022-08-19T00:54:12.019Z,95050.00
2022-08-19T00:54:26.232Z,95046.00
2022-08-19T00:54:32.180Z,95045.00
2022-08-19T00:54:42.079Z,95044.00
2022-08-19T00:54:52.834Z,95047.00
2022-08-19T00:55:02.222Z,95045.00
2022-08-19T00:55:12.180Z,95044.00
2022-08-19T00:55:22.161Z,95042.00
2022-08-19T00:55:32.160Z,95042.00
2022-08-19T00:55:42.187Z,95044.00
2022-08-19T00:55:52.058Z,95042.00
2022-08-19T00:56:01.992Z,95039.00
2022-08-19T00:56:12.134Z,95035.00
2022-08-19T00:56:21.987Z,95036.00
2022-08-19T00:56:32.130Z,95034.00
2022-08-19T00:56:42.087Z,95034.00
2022-08-19T00:56:51.999Z,95038.00
2022-08-19T00:57:02.104Z,95033.00
2022-08-19T00:57:11.982Z,95036.00
2022-08-19T00:57:22.059Z,95031.00
2022-08-19T00:57:32.086Z,95031.00
2022-08-19T00:57:42.137Z,95032.00
2022-08-19T00:57:52.206Z,95029.00
2022-08-19T00:58:02.132Z,95026.00
2022-08-19T00:58:12.380Z,95026.00
2022-08-19T00:58:22.238Z,95028.00
2022-08-19T00:58:32.123Z,95031.00
2022-08-19T00:58:42.070Z,95029.00
2022-08-19T00:58:52.242Z,95031.00
2022-08-19T00:59:01.988Z,95031.00
2022-08-19T00:59:12.185Z,95031.00
2022-08-19T00:59:53.505Z,95034.00
2022-08-19T01:00:00.547Z,95031.00
2022-08-19T01:00:00.780Z,95034.00
2022-08-19T01:00:00.849Z,95031.00
2022-08-19T01:00:03.264Z,95030.00
2022-08-19T01:00:12.205Z,95032.00
2022-08-19T01:00:22.079Z,95031.00
2022-08-19T01:00:32.194Z,95034.00
2022-08-19T01:00:42.151Z,95030.00
2022-08-19T01:00:52.165Z,95032.00
2022-08-19T01:01:01.991Z,95035.00
2022-08-19T01:01:12.299Z,95038.00
2022-08-19T01:01:22.350Z,95036.00
2022-08-19T01:01:32.337Z,95033.00
2022-08-19T01:01:42.222Z,95035.00
2022-08-19T01:01:52.284Z,95035.00
2022-08-19T01:02:02.013Z,95033.00
2022-08-19T01:02:12.031Z,95035.00
2022-08-19T01:02:22.232Z,95037.00
2022-08-19T01:02:32.229Z,95037.00
2022-08-19T01:02:42.300Z,95033.00
2022-08-19T01:02:52.501Z,95038.00
2022-08-19T01:03:01.965Z,95037.00
2022-08-19T01:03:12.242Z,95037.00
2022-08-19T01:03:22.113Z,95039.00
2022-08-19T01:03:56.535Z,95036.00
2022-08-19T01:03:57.192Z,95038.00
2022-08-19T01:03:58.199Z,95040.00
2022-08-19T01:04:02.018Z,95042.00
2022-08-19T01:04:12.157Z,95043.00
2022-08-19T01:04:22.155Z,95042.00
2022-08-19T01:04:32.071Z,95043.00
2022-08-19T01:04:42.227Z,95048.00
2022-08-19T01:04:51.980Z,95044.00
2022-08-19T01:05:02.200Z,95044.00
2022-08-19T01:05:12.145Z,95048.00
2022-08-19T01:05:21.989Z,95046.00
2022-08-19T01:05:32.171Z,95045.00
2022-08-19T01:05:42.213Z,95046.00
2022-08-19T01:05:52.124Z,95047.00
2022-08-19T01:06:01.965Z,95045.00
2022-08-19T01:06:12.147Z,95045.00
2022-08-19T01:06:22.192Z,95046.00
2022-08-19T01:06:32.128Z,95044.00
2022-08-19T01:06:42.391Z,95047.00
2022-08-19T01:06:52.252Z,95043.00
2022-08-19T01:07:02.073Z,95044.00
2022-08-19T01:07:15.090Z,95044.00
2022-08-19T01:07:22.205Z,95044.00
2022-08-19T01:07:38.057Z,95040.00
2022-08-19T01:07:42.018Z,95037.00
2022-08-19T01:07:52.299Z,95037.00
2022-08-19T01:08:02.013Z,95038.00
2022-08-19T01:08:12.024Z,95038.00
2022-08-19T01:08:22.201Z,95038.00
2022-08-19T01:08:32.218Z,95036.00
2022-08-19T01:08:42.182Z,95036.00
2022-08-19T01:08:52.115Z,95035.00
2022-08-19T01:09:02.010Z,95034.00
2022-08-19T01:09:12.155Z,95033.00
2022-08-19T01:09:22.001Z,95035.00
2022-08-19T01:09:31.986Z,95037.00
2022-08-19T01:09:42.080Z,95034.00
2022-08-19T01:09:52.113Z,95032.00
2022-08-19T01:10:02.189Z,95032.00
2022-08-19T01:10:12.097Z,95030.00
2022-08-19T01:10:22.076Z,95029.00
2022-08-19T01:10:36.500Z,95031.00
2022-08-19T01:10:42.191Z,95033.00
2022-08-19T01:10:52.028Z,95032.00
2022-08-19T01:11:02.025Z,95031.00
2022-08-19T01:11:12.216Z,95032.00
2022-08-19T01:11:22.457Z,95029.00
2022-08-19T01:11:32.270Z,95030.00
2022-08-19T01:11:42.195Z,95032.00
2022-08-19T01:11:51.995Z,95030.00
2022-08-19T01:12:02.152Z,95030.00
2022-08-19T01:12:11.983Z,95032.00
2022-08-19T01:12:22.061Z,95031.00
2022-08-19T01:12:32.009Z,95031.00
2022-08-19T01:12:42.143Z,95031.00
2022-08-19T01:12:52.169Z,95033.00
2022-08-19T01:13:02.026Z,95033.00
2022-08-19T01:13:12.164Z,95026.00
2022-08-19T01:13:22.206Z,95030.00
2022-08-19T01:13:48.875Z,95025.00
2022-08-19T01:13:49.135Z,95027.00
2022-08-19T01:13:52.273Z,95026.00
2022-08-19T01:14:02.099Z,95029.00
2022-08-19T01:14:12.361Z,95029.00
2022-08-19T01:14:22.118Z,95029.00
2022-08-19T01:14:32.041Z,95028.00
2022-08-19T01:14:42.041Z,95025.00
2022-08-19T01:14:52.252Z,95028.00
2022-08-19T01:15:02.122Z,95030.00
2022-08-19T01:15:12.260Z,95028.00
2022-08-19T01:15:22.091Z,95029.00
2022-08-19T01:15:32.180Z,95028.00
2022-08-19T01:15:42.332Z,95031.00
2022-08-19T01:15:52.259Z,95030.00
2022-08-19T01:16:01.976Z,95031.00
2022-08-19T01:16:12.298Z,95032.00
2022-08-19T01:16:22.124Z,95034.00
2022-08-19T01:16:32.346Z,95030.00
2022-08-19T01:16:42.084Z,95029.00
2022-08-19T01:16:52.028Z,95030.00
2022-08-19T01:17:02.226Z,95034.00
2022-08-19T01:17:12.130Z,95032.00
2022-08-19T01:17:22.166Z,95032.00
2022-08-19T01:17:32.044Z,95029.00
2022-08-19T01:17:41.985Z,95035.00
2022-08-19T01:17:52.136Z,95033.00
2022-08-19T01:18:02.154Z,95034.00
2022-08-19T01:18:12.289Z,95032.00
2022-08-19T01:18:22.297Z,95034.00
2022-08-19T01:18:31.988Z,95034.00
2022-08-19T01:18:42.011Z,95036.00
2022-08-19T01:18:52.119Z,95036.00
2022-08-19T01:19:02.009Z,95031.00
2022-08-19T01:19:12.093Z,95033.00
2022-08-19T01:19:22.042Z,95031.00
2022-08-19T01:19:32.153Z,95033.00
2022-08-19T01:19:44.095Z,95031.00
2022-08-19T01:19:51.977Z,95030.00
2022-08-19T01:20:02.203Z,95031.00
2022-08-19T01:20:12.260Z,95029.00
2022-08-19T01:20:22.136Z,95031.00
2022-08-19T01:20:32.016Z,95033.00
2022-08-19T01:20:42.008Z,95033.00
2022-08-19T01:20:52.106Z,95029.00
2022-08-19T01:21:01.992Z,95029.00
2022-08-19T01:21:11.972Z,95026.00
2022-08-19T01:21:22.192Z,95023.00
2022-08-19T01:21:32.174Z,95024.00
2022-08-19T01:21:42.047Z,95027.00
2022-08-19T01:21:52.188Z,95027.00
2022-08-19T01:22:13.959Z,95026.00
2022-08-19T01:22:13.992Z,95026.00
2022-08-19T01:22:28.757Z,95028.00
2022-08-19T01:22:33.889Z,95024.00
2022-08-19T01:22:42.165Z,95025.00
2022-08-19T01:22:52.246Z,95023.00
2022-08-19T01:23:02.254Z,95021.00
2022-08-19T01:23:12.010Z,95026.00
2022-08-19T01:23:22.176Z,95020.00
2022-08-19T01:23:32.102Z,95023.00
2022-08-19T01:23:42.028Z,95019.00
2022-08-19T01:23:52.180Z,95019.00
2022-08-19T01:24:02.092Z,95022.00
2022-08-19T01:24:12.054Z,95023.00
2022-08-19T01:24:22.215Z,95023.00
2022-08-19T01:24:32.115Z,95021.00
2022-08-19T01:24:45.234Z,95023.00
2022-08-19T01:24:52.074Z,95026.00
2022-08-19T01:25:02.180Z,95023.00
2022-08-19T01:25:14.951Z,95028.00
2022-08-19T01:25:22.009Z,95024.00
2022-08-19T01:25:32.188Z,95023.00
2022-08-19T01:25:42.231Z,95027.00
2022-08-19T01:25:52.003Z,95031.00
2022-08-19T01:26:02.015Z,95027.00
2022-08-19T01:26:11.971Z,95028.00
2022-08-19T01:26:22.022Z,95029.00
2022-08-19T01:26:32.176Z,95029.00
2022-08-19T01:26:42.156Z,95026.00
2022-08-19T01:26:52.144Z,95031.00
2022-08-19T01:27:02.112Z,95030.00
2022-08-19T01:27:12.233Z,95028.00
2022-08-19T01:27:22.244Z,95028.00
2022-08-19T01:27:42.969Z,95033.00
2022-08-19T01:27:43.275Z,95031.00
2022-08-19T01:27:53.644Z,95032.00
2022-08-19T01:28:11.019Z,95032.00
2022-08-19T01:28:12.166Z,95034.00
2022-08-19T01:28:34.058Z,95034.00
2022-08-19T01:28:39.706Z,95035.00
2022-08-19T01:28:42.384Z,95035.00
2022-08-19T01:28:52.126Z,95037.00
2022-08-19T01:29:02.220Z,95033.00
2022-08-19T01:29:12.079Z,95038.00
2022-08-19T01:29:22.102Z,95037.00
2022-08-19T01:29:32.166Z,95038.00
2022-08-19T01:29:42.081Z,95036.00
2022-08-19T01:29:52.227Z,95041.00
2022-08-19T01:30:02.240Z,95039.00
2022-08-19T01:30:12.170Z,95037.00
2022-08-19T01:30:22.118Z,95039.00
2022-08-19T01:30:32.052Z,95038.00
2022-08-19T01:30:44.315Z,95042.00
2022-08-19T01:30:52.225Z,95041.00
2022-08-19T01:31:02.082Z,95042.00
2022-08-19T01:31:12.082Z,95043.00
2022-08-19T01:31:26.787Z,95043.00
2022-08-19T01:31:32.697Z,95045.00
2022-08-19T01:31:42.192Z,95044.00
2022-08-19T01:31:52.078Z,95045.00
2022-08-19T01:32:02.199Z,95044.00
2022-08-19T01:32:33.108Z,95046.00
2022-08-19T01:32:33.382Z,95045.00
2022-08-19T01:32:34.138Z,95050.00
2022-08-19T01:32:42.176Z,95050.00
2022-08-19T01:32:52.254Z,95051.00
2022-08-19T01:33:02.064Z,95046.00
2022-08-19T01:33:12.232Z,95045.00
2022-08-19T01:33:22.048Z,95049.00
2022-08-19T01:33:31.984Z,95050.00
2022-08-19T01:33:42.252Z,95051.00
2022-08-19T01:33:52.248Z,95051.00
2022-08-19T01:34:02.165Z,95053.00
2022-08-19T01:34:11.998Z,95051.00
2022-08-19T01:34:22.164Z,95051.00
2022-08-19T01:34:32.029Z,95055.00
2022-08-19T01:34:41.996Z,95054.00
2022-08-19T01:34:52.162Z,95053.00
2022-08-19T01:35:02.274Z,95055.00
2022-08-19T01:35:12.246Z,95055.00
2022-08-19T01:35:22.071Z,95055.00
2022-08-19T01:35:32.176Z,95057.00
2022-08-19T01:35:42.111Z,95054.00
2022-08-19T01:35:52.146Z,95055.00
2022-08-19T01:36:02.127Z,95055.00
2022-08-19T01:36:12.022Z,95060.00
2022-08-19T01:36:22.376Z,95059.00
2022-08-19T01:36:32.206Z,95058.00
2022-08-19T01:36:42.139Z,95060.00
2022-08-19T01:36:52.258Z,95061.00
2022-08-19T01:37:02.253Z,95058.00
2022-08-19T01:37:12.163Z,95063.00
2022-08-19T01:37:27.175Z,95064.00
2022-08-19T01:37:32.147Z,95066.00
2022-08-19T01:37:42.092Z,95066.00
2022-08-19T01:37:52.241Z,95063.00
2022-08-19T01:38:02.079Z,95066.00
2022-08-19T01:38:12.520Z,95065.00
2022-08-19T01:38:22.260Z,95069.00
2022-08-19T01:38:32.185Z,95068.00
2022-08-19T01:38:44.177Z,95071.00
2022-08-19T01:38:52.112Z,95069.00
2022-08-19T01:39:02.180Z,95069.00
2022-08-19T01:39:11.971Z,95070.00
2022-08-19T01:39:22.128Z,95070.00
2022-08-19T01:39:32.242Z,95073.00
2022-08-19T01:39:42.233Z,95074.00
2022-08-19T01:39:52.196Z,95071.00
2022-08-19T01:40:05.278Z,95075.00
2022-08-19T01:40:12.013Z,95071.00
2022-08-19T01:40:22.276Z,95070.00
2022-08-19T01:40:32.171Z,95075.00
2022-08-19T01:40:42.024Z,95074.00
2022-08-19T01:40:52.209Z,95077.00
2022-08-19T01:41:02.213Z,95076.00
2022-08-19T01:41:11.980Z,95078.00
2022-08-19T01:41:22.115Z,95077.00
2022-08-19T01:41:31.986Z,95076.00
2022-08-19T01:41:41.977Z,95077.00
2022-08-19T01:41:52.251Z,95077.00
2022-08-19T01:42:02.016Z,95077.00
2022-08-19T01:42:12.073Z,95076.00
2022-08-19T01:42:22.011Z,95079.00
2022-08-19T01:42:32.214Z,95073.00
2022-08-19T01:42:42.351Z,95076.00
2022-08-19T01:42:52.568Z,95075.00
2022-08-19T01:43:02.157Z,95075.00
2022-08-19T01:43:11.978Z,95079.00
2022-08-19T01:43:22.193Z,95077.00
2022-08-19T01:43:32.120Z,95074.00
2022-08-19T01:44:03.828Z,95077.00
2022-08-19T01:44:13.291Z,95076.00
2022-08-19T01:44:13.886Z,95076.00
2022-08-19T01:44:17.496Z,95077.00
2022-08-19T01:44:22.307Z,95072.00
2022-08-19T01:44:32.249Z,95074.00
2022-08-19T01:44:42.233Z,95076.00
2022-08-19T01:44:52.038Z,95074.00
2022-08-19T01:45:02.140Z,95072.00
2022-08-19T01:45:12.069Z,95074.00
2022-08-19T01:45:22.255Z,95073.00
2022-08-19T01:45:32.233Z,95074.00
2022-08-19T01:45:42.257Z,95071.00
2022-08-19T01:45:52.079Z,95074.00
2022-08-19T01:46:02.011Z,95075.00
2022-08-19T01:46:12.113Z,95072.00
2022-08-19T01:46:24.948Z,95071.00
2022-08-19T01:46:32.216Z,95070.00
2022-08-19T01:46:42.080Z,95069.00
2022-08-19T01:46:52.238Z,95068.00
2022-08-19T01:47:02.203Z,95067.00
2022-08-19T01:47:11.970Z,95068.00
2022-08-19T01:47:22.130Z,95066.00
2022-08-19T01:47:32.010Z,95070.00
2022-08-19T01:47:42.110Z,95069.00
2022-08-19T01:48:01.400Z,95068.00
2022-08-19T01:48:02.653Z,95068.00
2022-08-19T01:48:12.257Z,95063.00
2022-08-19T01:48:22.221Z,95071.00
2022-08-19T01:48:32.158Z,95067.00
2022-08-19T01:48:42.312Z,95069.00
2022-08-19T01:48:52.201Z,95069.00
2022-08-19T01:49:02.267Z,95067.00
2022-08-19T01:49:12.107Z,95069.00
2022-08-19T01:49:22.084Z,95070.00
2022-08-19T01:49:32.264Z,95069.00
2022-08-19T01:49:42.005Z,95069.00
2022-08-19T01:49:52.037Z,95070.00
2022-08-19T01:50:02.345Z,95069.00
2022-08-19T01:50:12.043Z,95071.00
2022-08-19T01:50:22.243Z,95070.00
2022-08-19T01:50:32.220Z,95069.00
2022-08-19T01:50:42.166Z,95073.00
2022-08-19T01:50:52.186Z,95068.00
2022-08-19T01:51:02.191Z,95071.00
2022-08-19T01:51:12.141Z,95070.00
2022-08-19T01:51:22.138Z,95071.00
2022-08-19T01:51:38.480Z,95072.00
2022-08-19T01:51:42.251Z,95073.00
2022-08-19T01:51:52.049Z,95073.00
2022-08-19T01:52:02.227Z,95072.00
2022-08-19T01:52:12.151Z,95072.00
2022-08-19T01:52:22.127Z,95073.00
2022-08-19T01:52:32.067Z,95070.00
2022-08-19T01:52:42.325Z,95073.00
2022-08-19T01:53:01.264Z,95071.00
2022-08-19T01:53:05.853Z,95072.00
2022-08-19T01:53:12.245Z,95073.00
2022-08-19T01:53:22.001Z,95075.00
2022-08-19T01:53:33.838Z,95076.00
2022-08-19T01:53:42.196Z,95076.00
2022-08-19T01:53:52.048Z,95074.00
2022-08-19T01:54:02.176Z,95075.00
2022-08-19T01:54:12.077Z,95075.00
2022-08-19T01:54:27.258Z,95074.00
2022-08-19T01:54:31.996Z,95074.00
2022-08-19T01:54:41.986Z,95077.00
2022-08-19T01:54:52.073Z,95076.00
2022-08-19T01:55:02.130Z,95076.00
2022-08-19T01:55:12.225Z,95073.00
2022-08-19T01:55:22.307Z,95081.00
2022-08-19T01:55:32.024Z,95080.00
2022-08-19T01:55:42.027Z,95083.00
2022-08-19T01:55:52.255Z,95079.00
2022-08-19T01:56:02.187Z,95079.00
2022-08-19T01:56:12.165Z,95082.00
2022-08-19T01:56:22.182Z,95082.00
2022-08-19T01:56:32.049Z,95084.00
2022-08-19T01:56:42.038Z,95084.00
2022-08-19T01:56:52.216Z,95086.00
2022-08-19T01:57:02.061Z,95084.00
2022-08-19T01:57:12.185Z,95085.00
2022-08-19T01:57:22.081Z,95083.00